sensor_id;sensor_type;location;lat;lon;timestamp;P1;durP1;ratioP1;P2;durP2;ratioP2
62654;SDS011;48717;55.556;37.816;2022-08-04T00:00:38;19.08;;;14.20;;
62654;SDS011;48717;55.556;37.816;2022-08-04T00:06:03;21.40;;;15.55;;
62654;SDS011;48717;55.556;37.816;2022-08-04T00:08:43;19.35;;;14.18;;
62654;SDS011;48717;55.556;37.816;2022-08-04T00:11:21;19.65;;;15.85;;
62654;SDS011;48717;55.556;37.816;2022-08-04T00:13:53;26.27;;;15.23;;
62654;SDS011;48717;55.556;37.816;2022-08-04T00:16:30;23.63;;;15.02;;
62654;SDS011;48717;55.556;37.816;2022-08-04T00:22:02;17.95;;;13.43;;
62654;SDS011;48717;55.556;37.816;2022-08-04T00:24:33;17.30;;;12.77;;
62654;SDS011;48717;55.556;37.816;2022-08-04T00:27:02;20.08;;;13.50;;
62654;SDS011;48717;55.556;37.816;2022-08-04T00:29:30;21.17;;;12.25;;
62654;SDS011;48717;55.556;37.816;2022-08-04T00:31:57;20.00;;;13.00;;
62654;SDS011;48717;55.556;37.816;2022-08-04T00:34:25;22.02;;;13.10;;
62654;SDS011;48717;55.556;37.816;2022-08-04T00:36:54;20.35;;;13.18;;
62654;SDS011;48717;55.556;37.816;2022-08-04T00:39:22;20.23;;;14.05;;
62654;SDS011;48717;55.556;37.816;2022-08-04T00:50:24;19.88;;;11.40;;
62654;SDS011;48717;55.556;37.816;2022-08-04T00:58:41;21.27;;;12.55;;
62654;SDS011;48717;55.556;37.816;2022-08-04T01:12:41;16.55;;;12.90;;
62654;SDS011;48717;55.556;37.816;2022-08-04T01:27:01;15.68;;;12.18;;
62654;SDS011;48717;55.556;37.816;2022-08-04T01:29:52;21.05;;;11.98;;
62654;SDS011;48717;55.556;37.816;2022-08-04T01:32:44;22.67;;;12.05;;
62654;SDS011;48717;55.556;37.816;2022-08-04T01:35:24;19.27;;;12.50;;
62654;SDS011;48717;55.556;37.816;2022-08-04T01:38:18;17.30;;;12.10;;
62654;SDS011;48717;55.556;37.816;2022-08-04T01:40:56;23.27;;;12.75;;
62654;SDS011;48717;55.556;37.816;2022-08-04T01:43:30;20.00;;;12.50;;
62654;SDS011;48717;55.556;37.816;2022-08-04T01:46:03;19.35;;;13.55;;
62654;SDS011;48717;55.556;37.816;2022-08-04T01:48:32;19.20;;;11.95;;
62654;SDS011;48717;55.556;37.816;2022-08-04T01:51:05;16.65;;;11.85;;
62654;SDS011;48717;55.556;37.816;2022-08-04T01:53:35;18.63;;;12.43;;
62654;SDS011;48717;55.556;37.816;2022-08-04T01:56:06;17.48;;;12.20;;
62654;SDS011;48717;55.556;37.816;2022-08-04T01:58:36;15.27;;;11.65;;
62654;SDS011;48717;55.556;37.816;2022-08-04T02:01:06;15.52;;;11.10;;
62654;SDS011;48717;55.556;37.816;2022-08-04T02:03:40;16.67;;;11.25;;
62654;SDS011;48717;55.556;37.816;2022-08-04T02:06:38;25.42;;;15.35;;
62654;SDS011;48717;55.556;37.816;2022-08-04T02:15:17;20.40;;;11.50;;
62654;SDS011;48717;55.556;37.816;2022-08-04T02:18:18;23.30;;;13.85;;
62654;SDS011;48717;55.556;37.816;2022-08-04T02:20:50;32.22;;;17.63;;
62654;SDS011;48717;55.556;37.816;2022-08-04T02:23:27;34.30;;;17.08;;
62654;SDS011;48717;55.556;37.816;2022-08-04T02:26:02;18.63;;;12.25;;
62654;SDS011;48717;55.556;37.816;2022-08-04T02:28:43;28.55;;;17.42;;
62654;SDS011;48717;55.556;37.816;2022-08-04T02:34:27;17.10;;;11.35;;
62654;SDS011;48717;55.556;37.816;2022-08-04T02:37:17;20.92;;;13.05;;
62654;SDS011;48717;55.556;37.816;2022-08-04T02:40:25;22.05;;;15.80;;
62654;SDS011;48717;55.556;37.816;2022-08-04T02:43:03;42.28;;;31.63;;
62654;SDS011;48717;55.556;37.816;2022-08-04T02:45:35;14.88;;;12.77;;
62654;SDS011;48717;55.556;37.816;2022-08-04T02:48:09;18.52;;;12.65;;
62654;SDS011;48717;55.556;37.816;2022-08-04T02:51:00;15.80;;;11.50;;
62654;SDS011;48717;55.556;37.816;2022-08-04T02:53:30;17.10;;;12.55;;
62654;SDS011;48717;55.556;37.816;2022-08-04T02:56:03;17.10;;;11.25;;
62654;SDS011;48717;55.556;37.816;2022-08-04T02:58:48;21.30;;;11.55;;
62654;SDS011;48717;55.556;37.816;2022-08-04T03:07:40;19.42;;;11.38;;
62654;SDS011;48717;55.556;37.816;2022-08-04T03:24:54;18.58;;;10.93;;
62654;SDS011;48717;55.556;37.816;2022-08-04T03:34:16;14.65;;;11.55;;
62654;SDS011;48717;55.556;37.816;2022-08-04T03:44:27;18.95;;;11.95;;
62654;SDS011;48717;55.556;37.816;2022-08-04T04:04:25;18.50;;;13.88;;
62654;SDS011;48717;55.556;37.816;2022-08-04T04:15:13;22.58;;;13.00;;
62654;SDS011;48717;55.556;37.816;2022-08-04T04:52:52;17.88;;;11.73;;
62654;SDS011;48717;55.556;37.816;2022-08-04T04:55:34;16.20;;;10.70;;
62654;SDS011;48717;55.556;37.816;2022-08-04T04:58:19;19.80;;;10.82;;
62654;SDS011;48717;55.556;37.816;2022-08-04T05:10:08;21.30;;;10.52;;
62654;SDS011;48717;55.556;37.816;2022-08-04T05:16:08;13.40;;;9.73;;
62654;SDS011;48717;55.556;37.816;2022-08-04T05:18:47;15.75;;;9.32;;
62654;SDS011;48717;55.556;37.816;2022-08-04T05:21:32;12.85;;;9.10;;
62654;SDS011;48717;55.556;37.816;2022-08-04T05:24:07;12.45;;;8.27;;
62654;SDS011;48717;55.556;37.816;2022-08-04T05:26:38;12.95;;;8.57;;
62654;SDS011;48717;55.556;37.816;2022-08-04T05:29:12;14.15;;;8.80;;
62654;SDS011;48717;55.556;37.816;2022-08-04T05:31:56;10.55;;;8.10;;
62654;SDS011;48717;55.556;37.816;2022-08-04T05:34:28;19.15;;;8.32;;
62654;SDS011;48717;55.556;37.816;2022-08-04T05:37:00;14.23;;;8.13;;
62654;SDS011;48717;55.556;37.816;2022-08-04T05:39:47;9.25;;;8.10;;
62654;SDS011;48717;55.556;37.816;2022-08-04T05:42:20;10.93;;;7.55;;
62654;SDS011;48717;55.556;37.816;2022-08-04T05:44:48;16.45;;;7.50;;
62654;SDS011;48717;55.556;37.816;2022-08-04T05:47:16;14.00;;;7.90;;
62654;SDS011;48717;55.556;37.816;2022-08-04T05:49:47;26.33;;;8.25;;
62654;SDS011;48717;55.556;37.816;2022-08-04T05:52:30;11.43;;;6.93;;
62654;SDS011;48717;55.556;37.816;2022-08-04T05:54:58;12.65;;;7.10;;
62654;SDS011;48717;55.556;37.816;2022-08-04T05:57:29;12.60;;;6.50;;
62654;SDS011;48717;55.556;37.816;2022-08-04T05:59:58;10.57;;;6.95;;
62654;SDS011;48717;55.556;37.816;2022-08-04T06:02:47;10.20;;;5.90;;
62654;SDS011;48717;55.556;37.816;2022-08-04T06:05:15;9.85;;;6.13;;
62654;SDS011;48717;55.556;37.816;2022-08-04T06:07:44;10.60;;;6.00;;
62654;SDS011;48717;55.556;37.816;2022-08-04T06:10:33;8.95;;;5.68;;
62654;SDS011;48717;55.556;37.816;2022-08-04T06:13:05;10.75;;;5.63;;
62654;SDS011;48717;55.556;37.816;2022-08-04T06:15:56;13.27;;;5.05;;
62654;SDS011;48717;55.556;37.816;2022-08-04T06:18:36;7.05;;;4.60;;
62654;SDS011;48717;55.556;37.816;2022-08-04T06:21:38;5.65;;;5.05;;
62654;SDS011;48717;55.556;37.816;2022-08-04T06:24:18;7.18;;;4.93;;
62654;SDS011;48717;55.556;37.816;2022-08-04T06:26:53;10.45;;;5.00;;
62654;SDS011;48717;55.556;37.816;2022-08-04T06:29:27;10.05;;;5.00;;
62654;SDS011;48717;55.556;37.816;2022-08-04T06:32:03;5.63;;;4.32;;
62654;SDS011;48717;55.556;37.816;2022-08-04T06:34:58;13.60;;;4.47;;
62654;SDS011;48717;55.556;37.816;2022-08-04T06:37:30;9.30;;;4.70;;
62654;SDS011;48717;55.556;37.816;2022-08-04T06:40:09;4.85;;;4.10;;
62654;SDS011;48717;55.556;37.816;2022-08-04T06:42:59;4.80;;;4.30;;
62654;SDS011;48717;55.556;37.816;2022-08-04T06:45:30;6.80;;;4.53;;
62654;SDS011;48717;55.556;37.816;2022-08-04T06:48:02;16.95;;;4.90;;
62654;SDS011;48717;55.556;37.816;2022-08-04T06:50:33;7.68;;;4.13;;
62654;SDS011;48717;55.556;37.816;2022-08-04T06:53:21;8.52;;;4.75;;
62654;SDS011;48717;55.556;37.816;2022-08-04T06:55:50;5.93;;;4.43;;
62654;SDS011;48717;55.556;37.816;2022-08-04T06:58:19;8.05;;;4.47;;
62654;SDS011;48717;55.556;37.816;2022-08-04T07:00:47;9.70;;;4.40;;
62654;SDS011;48717;55.556;37.816;2022-08-04T07:03:16;8.63;;;4.27;;
62654;SDS011;48717;55.556;37.816;2022-08-04T07:05:48;10.90;;;4.35;;
62654;SDS011;48717;55.556;37.816;2022-08-04T07:08:17;7.55;;;4.30;;
62654;SDS011;48717;55.556;37.816;2022-08-04T07:10:45;6.78;;;4.10;;
62654;SDS011;48717;55.556;37.816;2022-08-04T07:13:13;5.20;;;3.80;;
62654;SDS011;48717;55.556;37.816;2022-08-04T07:15:42;10.95;;;4.30;;
62654;SDS011;48717;55.556;37.816;2022-08-04T07:18:11;9.68;;;3.80;;
62654;SDS011;48717;55.556;37.816;2022-08-04T07:20:43;10.77;;;4.00;;
62654;SDS011;48717;55.556;37.816;2022-08-04T07:23:16;6.47;;;3.85;;
62654;SDS011;48717;55.556;37.816;2022-08-04T07:25:50;10.50;;;4.32;;
62654;SDS011;48717;55.556;37.816;2022-08-04T07:28:38;7.60;;;3.90;;
62654;SDS011;48717;55.556;37.816;2022-08-04T07:31:07;6.35;;;4.07;;
62654;SDS011;48717;55.556;37.816;2022-08-04T07:33:57;5.43;;;3.80;;
62654;SDS011;48717;55.556;37.816;2022-08-04T07:36:46;6.37;;;4.17;;
62654;SDS011;48717;55.556;37.816;2022-08-04T07:39:16;8.15;;;4.10;;
62654;SDS011;48717;55.556;37.816;2022-08-04T07:41:55;7.63;;;4.10;;
62654;SDS011;48717;55.556;37.816;2022-08-04T07:44:24;5.32;;;3.70;;
62654;SDS011;48717;55.556;37.816;2022-08-04T07:46:51;5.18;;;4.20;;
62654;SDS011;48717;55.556;37.816;2022-08-04T07:49:19;5.03;;;3.40;;
62654;SDS011;48717;55.556;37.816;2022-08-04T07:52:07;6.72;;;3.75;;
62654;SDS011;48717;55.556;37.816;2022-08-04T07:54:34;8.20;;;4.20;;
62654;SDS011;48717;55.556;37.816;2022-08-04T07:57:02;6.85;;;3.83;;
62654;SDS011;48717;55.556;37.816;2022-08-04T07:59:29;8.00;;;4.00;;
62654;SDS011;48717;55.556;37.816;2022-08-04T08:01:58;8.32;;;4.00;;
62654;SDS011;48717;55.556;37.816;2022-08-04T08:04:27;8.85;;;4.10;;
62654;SDS011;48717;55.556;37.816;2022-08-04T08:06:55;8.63;;;4.20;;
62654;SDS011;48717;55.556;37.816;2022-08-04T08:11:51;7.57;;;4.10;;
62654;SDS011;48717;55.556;37.816;2022-08-04T08:14:39;15.70;;;4.82;;
62654;SDS011;48717;55.556;37.816;2022-08-04T08:17:06;17.25;;;4.63;;
62654;SDS011;48717;55.556;37.816;2022-08-04T08:19:34;7.93;;;4.20;;
62654;SDS011;48717;55.556;37.816;2022-08-04T08:22:02;5.53;;;3.97;;
62654;SDS011;48717;55.556;37.816;2022-08-04T08:24:32;4.78;;;4.38;;
62654;SDS011;48717;55.556;37.816;2022-08-04T08:27:02;5.70;;;4.63;;
62654;SDS011;48717;55.556;37.816;2022-08-04T08:29:32;6.63;;;4.60;;
62654;SDS011;48717;55.556;37.816;2022-08-04T08:32:03;13.35;;;4.35;;
62654;SDS011;48717;55.556;37.816;2022-08-04T08:34:35;6.93;;;4.40;;
62654;SDS011;48717;55.556;37.816;2022-08-04T08:43:15;5.95;;;4.20;;
62654;SDS011;48717;55.556;37.816;2022-08-04T08:49:16;9.68;;;4.85;;
62654;SDS011;48717;55.556;37.816;2022-08-04T09:11:47;5.70;;;5.07;;
62654;SDS011;48717;55.556;37.816;2022-08-04T09:14:28;6.18;;;5.47;;
62654;SDS011;48717;55.556;37.816;2022-08-04T09:17:26;10.50;;;5.93;;
62654;SDS011;48717;55.556;37.816;2022-08-04T09:20:03;6.55;;;5.85;;
62654;SDS011;48717;55.556;37.816;2022-08-04T09:25:45;9.00;;;5.82;;
62654;SDS011;48717;55.556;37.816;2022-08-04T09:28:24;10.05;;;6.78;;
62654;SDS011;48717;55.556;37.816;2022-08-04T09:31:12;10.10;;;6.37;;
62654;SDS011;48717;55.556;37.816;2022-08-04T09:34:00;9.75;;;6.35;;
62654;SDS011;48717;55.556;37.816;2022-08-04T09:36:46;9.88;;;6.43;;
62654;SDS011;48717;55.556;37.816;2022-08-04T09:39:26;6.45;;;5.85;;
62654;SDS011;48717;55.556;37.816;2022-08-04T09:42:16;48.33;;;16.95;;
62654;SDS011;48717;55.556;37.816;2022-08-04T09:44:55;12.60;;;6.43;;
62654;SDS011;48717;55.556;37.816;2022-08-04T09:58:26;11.45;;;6.20;;
62654;SDS011;48717;55.556;37.816;2022-08-04T10:01:00;9.07;;;6.15;;
62654;SDS011;48717;55.556;37.816;2022-08-04T10:03:32;13.82;;;7.15;;
62654;SDS011;48717;55.556;37.816;2022-08-04T10:14:37;8.73;;;6.90;;
62654;SDS011;48717;55.556;37.816;2022-08-04T10:17:26;10.27;;;6.80;;
62654;SDS011;48717;55.556;37.816;2022-08-04T10:20:10;9.98;;;7.15;;
62654;SDS011;48717;55.556;37.816;2022-08-04T10:23:14;7.90;;;6.80;;
62654;SDS011;48717;55.556;37.816;2022-08-04T10:26:41;7.60;;;6.90;;
62654;SDS011;48717;55.556;37.816;2022-08-04T10:31:44;7.55;;;6.80;;
62654;SDS011;48717;55.556;37.816;2022-08-04T10:34:20;7.30;;;6.60;;
62654;SDS011;48717;55.556;37.816;2022-08-04T10:36:52;11.07;;;7.00;;
62654;SDS011;48717;55.556;37.816;2022-08-04T10:39:28;7.45;;;6.60;;
62654;SDS011;48717;55.556;37.816;2022-08-04T10:42:19;8.07;;;6.85;;
62654;SDS011;48717;55.556;37.816;2022-08-04T10:47:25;7.85;;;6.97;;
62654;SDS011;48717;55.556;37.816;2022-08-04T10:50:00;7.75;;;6.97;;
62654;SDS011;48717;55.556;37.816;2022-08-04T10:52:33;7.88;;;7.05;;
62654;SDS011;48717;55.556;37.816;2022-08-04T10:55:12;10.65;;;6.35;;
62654;SDS011;48717;55.556;37.816;2022-08-04T11:00:35;7.72;;;7.00;;
62654;SDS011;48717;55.556;37.816;2022-08-04T11:03:08;7.95;;;6.45;;
62654;SDS011;48717;55.556;37.816;2022-08-04T11:08:32;8.68;;;6.65;;
62654;SDS011;48717;55.556;37.816;2022-08-04T11:14:26;10.65;;;7.38;;
62654;SDS011;48717;55.556;37.816;2022-08-04T11:23:19;10.68;;;6.53;;
62654;SDS011;48717;55.556;37.816;2022-08-04T11:26:08;8.00;;;6.50;;
62654;SDS011;48717;55.556;37.816;2022-08-04T11:31:47;9.98;;;6.88;;
62654;SDS011;48717;55.556;37.816;2022-08-04T11:34:24;10.95;;;7.10;;
62654;SDS011;48717;55.556;37.816;2022-08-04T11:37:02;11.82;;;6.78;;
62654;SDS011;48717;55.556;37.816;2022-08-04T11:42:33;8.20;;;7.15;;
62654;SDS011;48717;55.556;37.816;2022-08-04T11:50:34;10.07;;;6.40;;
62654;SDS011;48717;55.556;37.816;2022-08-04T11:53:04;7.10;;;6.40;;
62654;SDS011;48717;55.556;37.816;2022-08-04T11:55:33;7.32;;;6.57;;
62654;SDS011;48717;55.556;37.816;2022-08-04T11:58:22;7.90;;;7.07;;
62654;SDS011;48717;55.556;37.816;2022-08-04T12:01:11;9.57;;;7.03;;
62654;SDS011;48717;55.556;37.816;2022-08-04T12:06:44;7.63;;;6.93;;
62654;SDS011;48717;55.556;37.816;2022-08-04T12:09:38;8.77;;;6.95;;
62654;SDS011;48717;55.556;37.816;2022-08-04T12:17:46;14.93;;;7.30;;
62654;SDS011;48717;55.556;37.816;2022-08-04T12:20:21;7.88;;;7.18;;
62654;SDS011;48717;55.556;37.816;2022-08-04T12:23:10;28.77;;;8.77;;
62654;SDS011;48717;55.556;37.816;2022-08-04T12:25:43;12.93;;;7.20;;
62654;SDS011;48717;55.556;37.816;2022-08-04T12:28:28;9.15;;;7.07;;
62654;SDS011;48717;55.556;37.816;2022-08-04T12:31:19;10.07;;;7.47;;
62654;SDS011;48717;55.556;37.816;2022-08-04T12:39:24;10.50;;;7.88;;
62654;SDS011;48717;55.556;37.816;2022-08-04T12:44:41;14.05;;;8.18;;
62654;SDS011;48717;55.556;37.816;2022-08-04T12:47:11;9.02;;;7.63;;
62654;SDS011;48717;55.556;37.816;2022-08-04T12:49:55;10.60;;;7.80;;
62654;SDS011;48717;55.556;37.816;2022-08-04T12:52:30;10.05;;;9.05;;
62654;SDS011;48717;55.556;37.816;2022-08-04T12:55:27;9.45;;;7.72;;
62654;SDS011;48717;55.556;37.816;2022-08-04T12:57:56;11.00;;;8.10;;
62654;SDS011;48717;55.556;37.816;2022-08-04T13:00:34;9.97;;;8.47;;
62654;SDS011;48717;55.556;37.816;2022-08-04T13:03:08;9.45;;;8.55;;
62654;SDS011;48717;55.556;37.816;2022-08-04T13:05:38;9.88;;;8.05;;
62654;SDS011;48717;55.556;37.816;2022-08-04T13:08:09;10.88;;;8.50;;
62654;SDS011;48717;55.556;37.816;2022-08-04T13:10:41;11.57;;;7.97;;
62654;SDS011;48717;55.556;37.816;2022-08-04T13:13:18;9.68;;;7.97;;
62654;SDS011;48717;55.556;37.816;2022-08-04T13:15:54;12.52;;;8.60;;
62654;SDS011;48717;55.556;37.816;2022-08-04T13:18:27;10.43;;;8.50;;
62654;SDS011;48717;55.556;37.816;2022-08-04T13:21:14;9.80;;;8.50;;
62654;SDS011;48717;55.556;37.816;2022-08-04T13:23:55;9.70;;;8.73;;
62654;SDS011;48717;55.556;37.816;2022-08-04T13:26:49;15.25;;;9.00;;
62654;SDS011;48717;55.556;37.816;2022-08-04T13:29:24;9.70;;;8.52;;
62654;SDS011;48717;55.556;37.816;2022-08-04T13:32:18;10.20;;;9.20;;
62654;SDS011;48717;55.556;37.816;2022-08-04T13:34:49;9.55;;;8.57;;
62654;SDS011;48717;55.556;37.816;2022-08-04T13:37:20;9.70;;;8.70;;
62654;SDS011;48717;55.556;37.816;2022-08-04T13:39:52;13.35;;;8.95;;
62654;SDS011;48717;55.556;37.816;2022-08-04T13:42:22;9.88;;;8.30;;
62654;SDS011;48717;55.556;37.816;2022-08-04T13:44:53;16.40;;;9.30;;
62654;SDS011;48717;55.556;37.816;2022-08-04T13:47:24;9.13;;;8.23;;
62654;SDS011;48717;55.556;37.816;2022-08-04T13:50:04;12.88;;;8.68;;
62654;SDS011;48717;55.556;37.816;2022-08-04T13:52:45;9.30;;;8.50;;
62654;SDS011;48717;55.556;37.816;2022-08-04T13:55:29;11.93;;;9.13;;
62654;SDS011;48717;55.556;37.816;2022-08-04T13:58:09;10.18;;;8.68;;
62654;SDS011;48717;55.556;37.816;2022-08-04T14:00:45;12.43;;;10.10;;
62654;SDS011;48717;55.556;37.816;2022-08-04T14:03:25;9.40;;;8.38;;
62654;SDS011;48717;55.556;37.816;2022-08-04T14:06:12;15.25;;;8.98;;
62654;SDS011;48717;55.556;37.816;2022-08-04T14:11:19;8.85;;;7.68;;
62654;SDS011;48717;55.556;37.816;2022-08-04T14:14:13;12.05;;;8.90;;
62654;SDS011;48717;55.556;37.816;2022-08-04T14:19:26;12.73;;;8.95;;
62654;SDS011;48717;55.556;37.816;2022-08-04T14:25:10;13.60;;;9.10;;
62654;SDS011;48717;55.556;37.816;2022-08-04T14:27:52;9.40;;;8.50;;
62654;SDS011;48717;55.556;37.816;2022-08-04T14:30:27;25.75;;;22.95;;
62654;SDS011;48717;55.556;37.816;2022-08-04T14:33:01;13.00;;;11.05;;
62654;SDS011;48717;55.556;37.816;2022-08-04T14:35:58;9.70;;;8.73;;
62654;SDS011;48717;55.556;37.816;2022-08-04T14:38:41;10.40;;;9.30;;
62654;SDS011;48717;55.556;37.816;2022-08-04T14:41:19;10.77;;;8.65;;
62654;SDS011;48717;55.556;37.816;2022-08-04T14:44:13;12.95;;;9.07;;
62654;SDS011;48717;55.556;37.816;2022-08-04T14:46:52;10.07;;;8.45;;
62654;SDS011;48717;55.556;37.816;2022-08-04T14:49:22;14.45;;;11.15;;
62654;SDS011;48717;55.556;37.816;2022-08-04T14:52:48;12.18;;;10.77;;
62654;SDS011;48717;55.556;37.816;2022-08-04T14:55:22;12.35;;;8.98;;
62654;SDS011;48717;55.556;37.816;2022-08-04T15:10:23;11.10;;;9.55;;
62654;SDS011;48717;55.556;37.816;2022-08-04T15:12:52;14.77;;;10.20;;
62654;SDS011;48717;55.556;37.816;2022-08-04T15:15:21;15.23;;;10.60;;
62654;SDS011;48717;55.556;37.816;2022-08-04T15:18:03;13.43;;;10.25;;
62654;SDS011;48717;55.556;37.816;2022-08-04T15:20:34;13.63;;;10.55;;
62654;SDS011;48717;55.556;37.816;2022-08-04T15:23:01;13.43;;;11.07;;
62654;SDS011;48717;55.556;37.816;2022-08-04T15:25:46;17.65;;;10.93;;
62654;SDS011;48717;55.556;37.816;2022-08-04T15:28:17;17.35;;;10.32;;
62654;SDS011;48717;55.556;37.816;2022-08-04T15:30:49;11.45;;;9.90;;
62654;SDS011;48717;55.556;37.816;2022-08-04T15:33:19;11.00;;;9.93;;
62654;SDS011;48717;55.556;37.816;2022-08-04T15:36:09;13.02;;;10.13;;
62654;SDS011;48717;55.556;37.816;2022-08-04T15:38:43;11.68;;;10.48;;
62654;SDS011;48717;55.556;37.816;2022-08-04T15:41:32;18.00;;;10.63;;
62654;SDS011;48717;55.556;37.816;2022-08-04T15:47:13;18.60;;;13.10;;
62654;SDS011;48717;55.556;37.816;2022-08-04T15:49:42;17.63;;;11.40;;
62654;SDS011;48717;55.556;37.816;2022-08-04T15:52:11;12.83;;;11.10;;
62654;SDS011;48717;55.556;37.816;2022-08-04T15:54:42;15.45;;;11.15;;
62654;SDS011;48717;55.556;37.816;2022-08-04T15:57:55;14.13;;;11.10;;
62654;SDS011;48717;55.556;37.816;2022-08-04T16:00:27;14.73;;;11.75;;
62654;SDS011;48717;55.556;37.816;2022-08-04T16:09:02;14.35;;;11.15;;
62654;SDS011;48717;55.556;37.816;2022-08-04T16:14:09;16.58;;;12.65;;
62654;SDS011;48717;55.556;37.816;2022-08-04T16:22:34;17.42;;;11.77;;
62654;SDS011;48717;55.556;37.816;2022-08-04T16:25:56;17.67;;;11.50;;
62654;SDS011;48717;55.556;37.816;2022-08-04T16:31:10;18.52;;;12.10;;
62654;SDS011;48717;55.556;37.816;2022-08-04T16:33:38;14.45;;;12.05;;
62654;SDS011;48717;55.556;37.816;2022-08-04T16:36:10;13.85;;;10.85;;
62654;SDS011;48717;55.556;37.816;2022-08-04T16:41:40;16.60;;;10.98;;
62654;SDS011;48717;55.556;37.816;2022-08-04T16:50:13;17.10;;;13.50;;
62654;SDS011;48717;55.556;37.816;2022-08-04T16:52:42;15.23;;;11.55;;
62654;SDS011;48717;55.556;37.816;2022-08-04T16:55:10;18.33;;;11.10;;
62654;SDS011;48717;55.556;37.816;2022-08-04T16:57:40;17.17;;;14.50;;
62654;SDS011;48717;55.556;37.816;2022-08-04T17:00:11;21.40;;;14.15;;
62654;SDS011;48717;55.556;37.816;2022-08-04T17:02:39;14.23;;;11.45;;
62654;SDS011;48717;55.556;37.816;2022-08-04T17:05:19;14.05;;;9.80;;
62654;SDS011;48717;55.556;37.816;2022-08-04T17:08:06;12.93;;;10.03;;
62654;SDS011;48717;55.556;37.816;2022-08-04T17:10:55;14.10;;;9.82;;
62654;SDS011;48717;55.556;37.816;2022-08-04T17:13:24;14.52;;;10.35;;
62654;SDS011;48717;55.556;37.816;2022-08-04T17:16:29;11.07;;;9.70;;
62654;SDS011;48717;55.556;37.816;2022-08-04T17:19:10;14.30;;;10.20;;
62654;SDS011;48717;55.556;37.816;2022-08-04T17:22:44;12.50;;;9.63;;
62654;SDS011;48717;55.556;37.816;2022-08-04T17:25:30;14.90;;;9.48;;
62654;SDS011;48717;55.556;37.816;2022-08-04T17:28:45;13.90;;;11.57;;
62654;SDS011;48717;55.556;37.816;2022-08-04T17:31:46;12.73;;;10.32;;
62654;SDS011;48717;55.556;37.816;2022-08-04T17:34:15;15.00;;;9.50;;
62654;SDS011;48717;55.556;37.816;2022-08-04T17:37:35;21.38;;;11.75;;
62654;SDS011;48717;55.556;37.816;2022-08-04T17:40:11;12.57;;;10.50;;
62654;SDS011;48717;55.556;37.816;2022-08-04T17:43:00;26.15;;;14.02;;
62654;SDS011;48717;55.556;37.816;2022-08-04T17:52:04;22.48;;;12.00;;
62654;SDS011;48717;55.556;37.816;2022-08-04T17:54:59;17.23;;;10.40;;
62654;SDS011;48717;55.556;37.816;2022-08-04T18:01:20;34.42;;;12.23;;
62654;SDS011;48717;55.556;37.816;2022-08-04T18:04:37;22.00;;;12.00;;
62654;SDS011;48717;55.556;37.816;2022-08-04T18:08:06;21.42;;;11.40;;
62654;SDS011;48717;55.556;37.816;2022-08-04T18:11:17;23.38;;;12.82;;
62654;SDS011;48717;55.556;37.816;2022-08-04T18:13:51;24.63;;;12.63;;
62654;SDS011;48717;55.556;37.816;2022-08-04T18:16:22;29.88;;;12.57;;
62654;SDS011;48717;55.556;37.816;2022-08-04T18:19:08;27.92;;;12.95;;
62654;SDS011;48717;55.556;37.816;2022-08-04T18:21:35;30.83;;;13.52;;
62654;SDS011;48717;55.556;37.816;2022-08-04T18:24:23;30.05;;;13.25;;
62654;SDS011;48717;55.556;37.816;2022-08-04T18:27:10;27.40;;;12.57;;
62654;SDS011;48717;55.556;37.816;2022-08-04T18:29:40;30.33;;;15.75;;
62654;SDS011;48717;55.556;37.816;2022-08-04T18:32:29;38.85;;;19.42;;
62654;SDS011;48717;55.556;37.816;2022-08-04T18:37:31;62.42;;;40.28;;
62654;SDS011;48717;55.556;37.816;2022-08-04T18:40:19;42.63;;;26.85;;
62654;SDS011;48717;55.556;37.816;2022-08-04T18:43:00;37.58;;;22.40;;
62654;SDS011;48717;55.556;37.816;2022-08-04T18:45:30;34.80;;;20.35;;
62654;SDS011;48717;55.556;37.816;2022-08-04T18:48:01;26.45;;;18.02;;
62654;SDS011;48717;55.556;37.816;2022-08-04T18:53:28;25.92;;;14.10;;
62654;SDS011;48717;55.556;37.816;2022-08-04T18:56:02;25.23;;;16.50;;
62654;SDS011;48717;55.556;37.816;2022-08-04T19:02:01;19.70;;;13.80;;
62654;SDS011;48717;55.556;37.816;2022-08-04T19:04:42;50.83;;;40.40;;
62654;SDS011;48717;55.556;37.816;2022-08-04T19:07:18;27.73;;;16.83;;
62654;SDS011;48717;55.556;37.816;2022-08-04T19:10:33;29.30;;;14.68;;
62654;SDS011;48717;55.556;37.816;2022-08-04T19:13:01;24.20;;;14.30;;
62654;SDS011;48717;55.556;37.816;2022-08-04T19:15:49;16.98;;;14.23;;
62654;SDS011;48717;55.556;37.816;2022-08-04T19:18:16;26.23;;;15.45;;
62654;SDS011;48717;55.556;37.816;2022-08-04T19:20:44;22.65;;;15.15;;
62654;SDS011;48717;55.556;37.816;2022-08-04T19:23:16;24.55;;;14.15;;
62654;SDS011;48717;55.556;37.816;2022-08-04T19:26:04;29.45;;;20.38;;
62654;SDS011;48717;55.556;37.816;2022-08-04T19:28:43;45.08;;;30.17;;
62654;SDS011;48717;55.556;37.816;2022-08-04T19:31:13;33.60;;;22.83;;
62654;SDS011;48717;55.556;37.816;2022-08-04T19:33:56;33.17;;;17.73;;
62654;SDS011;48717;55.556;37.816;2022-08-04T19:36:31;25.38;;;17.67;;
62654;SDS011;48717;55.556;37.816;2022-08-04T19:39:00;26.55;;;15.65;;
62654;SDS011;48717;55.556;37.816;2022-08-04T19:41:37;35.20;;;15.25;;
62654;SDS011;48717;55.556;37.816;2022-08-04T19:44:24;24.73;;;14.05;;
62654;SDS011;48717;55.556;37.816;2022-08-04T19:46:57;29.38;;;13.63;;
62654;SDS011;48717;55.556;37.816;2022-08-04T19:49:28;36.42;;;14.95;;
62654;SDS011;48717;55.556;37.816;2022-08-04T19:52:16;38.67;;;16.90;;
62654;SDS011;48717;55.556;37.816;2022-08-04T19:55:01;48.17;;;15.20;;
62654;SDS011;48717;55.556;37.816;2022-08-04T19:57:37;52.33;;;15.98;;
62654;SDS011;48717;55.556;37.816;2022-08-04T20:00:15;36.78;;;14.77;;
62654;SDS011;48717;55.556;37.816;2022-08-04T20:03:00;48.78;;;15.55;;
62654;SDS011;48717;55.556;37.816;2022-08-04T20:05:29;43.72;;;15.55;;
62654;SDS011;48717;55.556;37.816;2022-08-04T20:08:16;40.70;;;15.98;;
62654;SDS011;48717;55.556;37.816;2022-08-04T20:10:43;39.95;;;15.68;;
62654;SDS011;48717;55.556;37.816;2022-08-04T20:13:18;45.90;;;15.88;;
62654;SDS011;48717;55.556;37.816;2022-08-04T20:15:50;45.65;;;17.67;;
62654;SDS011;48717;55.556;37.816;2022-08-04T20:18:45;33.80;;;16.48;;
62654;SDS011;48717;55.556;37.816;2022-08-04T20:25:18;37.10;;;16.65;;
62654;SDS011;48717;55.556;37.816;2022-08-04T20:30:56;31.73;;;16.85;;
62654;SDS011;48717;55.556;37.816;2022-08-04T20:33:23;35.20;;;16.55;;
62654;SDS011;48717;55.556;37.816;2022-08-04T20:35:51;37.67;;;17.55;;
62654;SDS011;48717;55.556;37.816;2022-08-04T20:38:31;98.88;;;65.18;;
62654;SDS011;48717;55.556;37.816;2022-08-04T20:41:00;72.10;;;38.70;;
62654;SDS011;48717;55.556;37.816;2022-08-04T20:43:27;43.72;;;21.80;;
62654;SDS011;48717;55.556;37.816;2022-08-04T20:45:57;45.67;;;30.38;;
62654;SDS011;48717;55.556;37.816;2022-08-04T20:52:27;40.33;;;20.75;;
62654;SDS011;48717;55.556;37.816;2022-08-04T20:54:55;31.33;;;18.45;;
62654;SDS011;48717;55.556;37.816;2022-08-04T20:57:22;36.88;;;17.80;;
62654;SDS011;48717;55.556;37.816;2022-08-04T21:00:09;33.78;;;17.92;;
62654;SDS011;48717;55.556;37.816;2022-08-04T21:05:07;37.72;;;20.83;;
62654;SDS011;48717;55.556;37.816;2022-08-04T21:07:35;36.35;;;20.45;;